createdAt,value
2022-09-12T00:01:34.233Z,100580.84
2022-09-12T00:04:38.843Z,100578.03
2022-09-12T00:07:42.989Z,100580.31
2022-09-12T00:10:46.992Z,100580.50
2022-09-12T00:13:51.465Z,100573.81
2022-09-12T00:17:00.452Z,100583.88
2022-09-12T00:20:08.044Z,100580.31
2022-09-12T00:23:12.366Z,100577.50
2022-09-12T00:26:18.202Z,100577.88
2022-09-12T00:29:22.756Z,100581.78
2022-09-12T00:32:26.715Z,100579.78
2022-09-12T00:35:30.725Z,100578.03
2022-09-12T00:38:38.407Z,100576.91
2022-09-12T00:41:43.241Z,100574.00
2022-09-12T00:44:50.952Z,100565.19
2022-09-12T00:47:57.262Z,100564.63
2022-09-12T00:51:01.974Z,100557.13
2022-09-12T00:54:11.852Z,100559.88
2022-09-12T00:57:18.089Z,100556.72
2022-09-12T01:00:24.903Z,100554.34
2022-09-12T01:03:29.357Z,100546.50
2022-09-12T01:06:37.026Z,100545.66
2022-09-12T01:09:45.793Z,100544.25
2022-09-12T01:12:50.177Z,100540.13
2022-09-12T01:15:54.276Z,100551.22
2022-09-12T01:19:06.050Z,100541.53
2022-09-12T01:22:37.923Z,100544.81
2022-09-12T01:26:00.923Z,100544.19
2022-09-12T01:29:22.446Z,100554.47
2022-09-12T01:32:38.852Z,100548.66
2022-09-12T01:36:08.761Z,100551.41
2022-09-12T01:40:05.387Z,100543.06
2022-09-12T01:43:27.567Z,100545.94
2022-09-12T01:46:43.696Z,100549.28
2022-09-12T01:50:01.830Z,100551.59
2022-09-12T01:53:18.560Z,100549.66
2022-09-12T01:56:29.047Z,100542.81
2022-09-12T01:59:37.539Z,100542.06
2022-09-12T02:03:10.909Z,100539.13
2022-09-12T02:06:29.532Z,100540.06
2022-09-12T02:09:46.424Z,100543.59
2022-09-12T02:12:58.350Z,100546.78
2022-09-12T02:16:11.504Z,100544.47
2022-09-12T02:19:19.047Z,100546.06
2022-09-12T02:22:26.595Z,100538.97
2022-09-12T02:25:30.962Z,100540.53
2022-09-12T02:28:38.151Z,100535.59
2022-09-12T02:31:48.264Z,100532.88
2022-09-12T02:35:04.584Z,100530.50
2022-09-12T02:38:20.065Z,100529.09
2022-09-12T02:41:24.621Z,100527.22
2022-09-12T02:44:30.715Z,100535.69
2022-09-12T02:47:46.500Z,100536.88
2022-09-12T02:50:51.270Z,100527.50
2022-09-12T02:53:55.985Z,100523.75
2022-09-12T02:57:00.172Z,100528.78
2022-09-12T03:00:05.669Z,100528.03
2022-09-12T03:03:33.274Z,100531.69
2022-09-12T03:07:07.777Z,100526.56
2022-09-12T03:10:22.091Z,100516.28
2022-09-12T03:13:44.659Z,100522.53
2022-09-12T03:17:12.261Z,100521.28
2022-09-12T03:20:24.509Z,100521.28
2022-09-12T03:23:34.588Z,100529.28
2022-09-12T03:26:48.970Z,100520.06
2022-09-12T03:29:53.817Z,100520.41
2022-09-12T03:32:57.899Z,100521.38
2022-09-12T03:36:02.249Z,100523.44
2022-09-12T03:39:06.313Z,100520.50
2022-09-12T03:42:10.514Z,100522.06
2022-09-12T03:45:16.614Z,100515.41
2022-09-12T03:48:21.019Z,100518.13
2022-09-12T03:51:25.395Z,100515.72
2022-09-12T03:54:29.394Z,100515.91
2022-09-12T03:57:34.243Z,100522.56
2022-09-12T04:00:39.065Z,100522.78
2022-09-12T04:03:45.069Z,100519.41
2022-09-12T04:06:49.590Z,100522.13
2022-09-12T04:09:53.728Z,100529.78
2022-09-12T04:12:57.745Z,100528.16
2022-09-12T04:16:02.578Z,100530.44
2022-09-12T04:19:06.936Z,100537.44
2022-09-12T04:22:11.297Z,100533.91
2022-09-12T04:25:15.403Z,100538.13
2022-09-12T04:28:19.687Z,100549.38
2022-09-12T04:31:27.564Z,100539.72
2022-09-12T04:34:32.473Z,100534.13
2022-09-12T04:37:36.733Z,100541.16
2022-09-12T04:40:41.155Z,100530.16
2022-09-12T04:43:48.954Z,100529.28
2022-09-12T04:46:53.047Z,100527.53
2022-09-12T04:49:57.187Z,100531.63
2022-09-12T04:53:01.727Z,100530.25
2022-09-12T04:56:08.163Z,100535.69
2022-09-12T04:59:14.285Z,100531.38
2022-09-12T05:02:18.606Z,100533.38
2022-09-12T05:05:22.931Z,100526.84
2022-09-12T05:08:27.075Z,100540.19
2022-09-12T05:12:00.030Z,100544.16
2022-09-12T05:14:57.876Z,100545.13
2022-09-12T05:18:01.748Z,100544.97
2022-09-12T05:21:09.452Z,100553.06
2022-09-12T05:24:13.811Z,100543.44
2022-09-12T05:27:18.164Z,100546.00
2022-09-12T05:30:22.379Z,100545.06
2022-09-12T05:33:26.310Z,100544.16
2022-09-12T05:36:30.945Z,100556.91
2022-09-12T05:39:35.026Z,100548.28
2022-09-12T05:42:39.426Z,100558.41
2022-09-12T05:45:43.773Z,100559.91
2022-09-12T05:48:52.499Z,100556.72
2022-09-12T05:51:59.221Z,100558.31
2022-09-12T05:55:04.859Z,100569.16
2022-09-12T05:58:09.602Z,100577.25
2022-09-12T06:01:16.397Z,100568.97
2022-09-12T06:04:21.064Z,100575.31
2022-09-12T06:07:29.686Z,100577.44
2022-09-12T06:10:35.309Z,100576.91
2022-09-12T06:13:40.513Z,100581.28
2022-09-12T06:16:45.154Z,100585.19
2022-09-12T06:19:52.379Z,100587.78
2022-09-12T06:22:56.996Z,100575.88
2022-09-12T06:26:01.964Z,100577.13
2022-09-12T06:29:06.363Z,100582.19
2022-09-12T06:32:11.619Z,100575.66
2022-09-12T06:35:15.911Z,100574.13
2022-09-12T06:38:20.069Z,100576.13
2022-09-12T06:41:25.653Z,100576.22
2022-09-12T06:44:29.951Z,100574.78
2022-09-12T06:47:34.182Z,100579.41
2022-09-12T06:50:39.331Z,100578.50
2022-09-12T06:53:44.767Z,100581.69
2022-09-12T06:56:48.834Z,100580.63
2022-09-12T06:59:53.209Z,100588.47
2022-09-12T07:02:57.250Z,100588.25
2022-09-12T07:06:04.684Z,100581.19
2022-09-12T07:09:12.118Z,100584.03
2022-09-12T07:12:16.389Z,100577.03
2022-09-12T07:15:20.582Z,100580.56
2022-09-12T07:18:24.520Z,100592.41
2022-09-12T07:21:29.594Z,100576.84
2022-09-12T07:24:34.203Z,100583.53
2022-09-12T07:27:38.556Z,100585.31
2022-09-12T07:30:43.019Z,100583.81
2022-09-12T07:33:50.099Z,100585.00
2022-09-12T07:36:58.673Z,100579.66
2022-09-12T07:40:03.117Z,100581.06
2022-09-12T07:43:07.310Z,100574.59
2022-09-12T07:46:12.446Z,100582.06
2022-09-12T07:49:16.513Z,100582.47
2022-09-12T07:52:21.024Z,100572.44
2022-09-12T07:55:25.675Z,100576.75
2022-09-12T07:58:30.844Z,100584.91
2022-09-12T08:01:35.414Z,100575.03
2022-09-12T08:04:42.145Z,100583.88
2022-09-12T08:07:47.022Z,100581.53
2022-09-12T08:10:57.458Z,100589.22
2022-09-12T08:14:03.136Z,100582.53
2022-09-12T08:17:06.982Z,100592.41
2022-09-12T08:20:12.624Z,100581.34
2022-09-12T08:23:17.992Z,100584.09
2022-09-12T08:26:22.330Z,100582.25
2022-09-12T08:29:28.668Z,100585.59
2022-09-12T08:32:34.851Z,100587.28
2022-09-12T08:35:41.542Z,100584.66
2022-09-12T08:38:47.449Z,100585.03
2022-09-12T08:42:03.128Z,100581.22
2022-09-12T08:45:16.727Z,100585.56
2022-09-12T08:48:21.241Z,100584.16
2022-09-12T08:51:27.639Z,100586.72
2022-09-12T08:54:33.215Z,100581.66
2022-09-12T08:57:37.449Z,100585.91
2022-09-12T09:00:56.229Z,100574.47
2022-09-12T09:04:38.099Z,100582.19
2022-09-12T09:08:10.754Z,100576.81
2022-09-12T09:11:57.587Z,100571.75
2022-09-12T09:15:26.413Z,100578.97
2022-09-12T09:18:35.108Z,100566.94
2022-09-12T09:21:54.750Z,100562.81
2022-09-12T09:25:11.420Z,100556.22
2022-09-12T09:28:25.558Z,100565.28
2022-09-12T09:31:37.785Z,100563.47
2022-09-12T09:34:42.663Z,100568.09
2022-09-12T09:38:06.042Z,100561.28
2022-09-12T09:41:18.747Z,100551.34
2022-09-12T09:44:22.984Z,100556.78
2022-09-12T09:47:27.548Z,100548.97
2022-09-12T09:50:32.508Z,100555.16
2022-09-12T09:53:51.753Z,100542.50
2022-09-12T09:56:56.180Z,100543.84
2022-09-12T10:00:27.017Z,100538.34
2022-09-12T10:03:34.363Z,100540.59
2022-09-12T10:06:38.980Z,100534.53
2022-09-12T10:10:05.233Z,100532.97
2022-09-12T10:13:24.610Z,100526.25
2022-09-12T10:16:31.398Z,100536.13
2022-09-12T10:19:40.410Z,100533.09
2022-09-12T10:22:47.646Z,100530.75
2022-09-12T10:26:01.605Z,100525.03
2022-09-12T10:29:28.955Z,100532.09
2022-09-12T10:32:41.129Z,100534.75
2022-09-12T10:35:49.207Z,100530.13
2022-09-12T10:39:00.738Z,100528.81
2022-09-12T10:42:05.968Z,100532.13
2022-09-12T10:45:26.780Z,100526.34
2022-09-12T10:48:32.471Z,100524.00
2022-09-12T10:51:36.899Z,100515.28
2022-09-12T10:54:41.595Z,100520.13
2022-09-12T10:58:13.164Z,100511.41
2022-09-12T11:01:37.444Z,100515.22
2022-09-12T11:05:22.719Z,100495.59
2022-09-12T11:08:27.644Z,100505.03
2022-09-12T11:11:51.218Z,100499.53
2022-09-12T11:15:29.799Z,100495.94
2022-09-12T11:18:55.734Z,100494.34
2022-09-12T11:22:13.219Z,100478.19
2022-09-12T11:25:27.354Z,100483.56
2022-09-12T11:28:31.832Z,100484.69
2022-09-12T11:32:03.755Z,100478.50
2022-09-12T11:35:27.479Z,100476.78
2022-09-12T11:38:50.275Z,100473.75
2022-09-12T11:42:02.701Z,100471.38
2022-09-12T11:45:32.741Z,100469.19
2022-09-12T11:49:15.523Z,100468.44
2022-09-12T11:52:23.778Z,100465.88
2022-09-12T11:55:45.264Z,100466.78
2022-09-12T11:58:57.224Z,100469.81
2022-09-12T12:02:04.044Z,100464.06
2022-09-12T12:05:34.166Z,100455.97
2022-09-12T12:08:41.517Z,100456.38
2022-09-12T12:11:52.973Z,100460.47
2022-09-12T12:14:59.173Z,100456.78
2022-09-12T12:18:15.902Z,100452.38
2022-09-12T12:21:32.455Z,100453.69
2022-09-12T12:25:17.244Z,100463.13
2022-09-12T12:28:42.564Z,100443.47
2022-09-12T12:31:59.303Z,100441.69
2022-09-12T12:35:38.060Z,100443.84
2022-09-12T12:38:42.540Z,100437.66
2022-09-12T12:41:47.412Z,100435.38
2022-09-12T12:44:51.962Z,100427.94
2022-09-12T12:47:56.516Z,100436.91
2022-09-12T12:51:35.124Z,100427.66
2022-09-12T12:54:45.246Z,100429.97
2022-09-12T12:57:52.035Z,100425.97
2022-09-12T13:01:18.051Z,100414.91
2022-09-12T13:04:27.135Z,100416.34
2022-09-12T13:07:37.380Z,100416.13
2022-09-12T13:10:50.735Z,100411.69
2022-09-12T13:14:00.236Z,100412.13
2022-09-12T13:17:06.822Z,100407.81
2022-09-12T13:20:29.665Z,100401.72
2022-09-12T13:23:35.242Z,100404.31
2022-09-12T13:26:46.929Z,100392.25
2022-09-12T13:30:15.351Z,100392.00
2022-09-12T13:33:34.888Z,100390.34
2022-09-12T13:37:04.947Z,100379.63
2022-09-12T13:40:30.709Z,100379.25
2022-09-12T13:43:47.042Z,100379.25
2022-09-12T13:46:52.454Z,100376.09
2022-09-12T13:49:57.527Z,100368.19
2022-09-12T13:53:11.092Z,100379.47
2022-09-12T13:56:17.856Z,100371.94
2022-09-12T13:59:22.475Z,100372.88
2022-09-12T14:02:29.294Z,100370.09
2022-09-12T14:05:37.319Z,100370.88
2022-09-12T14:08:43.102Z,100373.72
2022-09-12T14:11:47.861Z,100363.97
2022-09-12T14:14:53.386Z,100358.34
2022-09-12T14:18:01.829Z,100366.63
2022-09-12T14:21:12.709Z,100360.94
2022-09-12T14:24:17.043Z,100349.72
2022-09-12T14:27:26.813Z,100344.78
2022-09-12T14:30:36.146Z,100343.22
2022-09-12T14:34:16.304Z,100341.28
2022-09-12T14:37:21.091Z,100334.66
2022-09-12T14:40:35.172Z,100333.44
2022-09-12T14:43:44.432Z,100334.88
2022-09-12T14:46:49.367Z,100329.19
2022-09-12T14:49:53.793Z,100335.69
2022-09-12T14:53:08.175Z,100329.88
2022-09-12T14:56:14.396Z,100332.38
2022-09-12T14:59:24.602Z,100328.22
2022-09-12T15:02:29.621Z,100327.69
2022-09-12T15:05:33.407Z,100330.03
2022-09-12T15:08:37.599Z,100325.72
2022-09-12T15:11:41.922Z,100326.66
2022-09-12T15:14:45.815Z,100318.47
2022-09-12T15:17:49.846Z,100320.69
2022-09-12T15:21:03.267Z,100320.41
2022-09-12T15:24:09.210Z,100312.09
2022-09-12T15:27:12.970Z,100315.59
2022-09-12T15:30:17.632Z,100323.78
2022-09-12T15:33:24.796Z,100318.31
2022-09-12T15:36:29.603Z,100317.53
2022-09-12T15:39:33.864Z,100322.81
2022-09-12T15:42:41.593Z,100324.53
2022-09-12T15:45:47.027Z,100320.94
2022-09-12T15:48:50.752Z,100317.38
2022-09-12T15:51:54.868Z,100314.69
2022-09-12T15:54:58.702Z,100321.50
2022-09-12T15:58:06.983Z,100320.97
2022-09-12T16:01:13.675Z,100312.69
2022-09-12T16:04:26.376Z,100312.59
2022-09-12T16:07:34.207Z,100314.03
2022-09-12T16:10:38.851Z,100308.00
2022-09-12T16:13:43.022Z,100312.94
2022-09-12T16:16:54.612Z,100300.28
2022-09-12T16:19:58.788Z,100293.44
2022-09-12T16:23:03.050Z,100293.22
2022-09-12T16:26:07.370Z,100293.53
2022-09-12T16:29:13.410Z,100286.03
2022-09-12T16:32:17.654Z,100292.41
2022-09-12T16:35:21.637Z,100293.22
2022-09-12T16:38:25.814Z,100288.19
2022-09-12T16:41:30.225Z,100285.16
2022-09-12T16:44:34.389Z,100270.72
2022-09-12T16:47:38.705Z,100272.16
2022-09-12T16:50:42.972Z,100263.66
2022-09-12T16:53:48.258Z,100265.66
2022-09-12T16:56:52.527Z,100257.63
2022-09-12T16:59:56.897Z,100261.09
2022-09-12T17:03:00.508Z,100258.84
2022-09-12T17:06:08.089Z,100259.50
2022-09-12T17:09:18.326Z,100247.88
2022-09-12T17:12:23.954Z,100259.28
2022-09-12T17:15:28.050Z,100251.78
2022-09-12T17:18:32.458Z,100246.28
2022-09-12T17:21:36.723Z,100252.50
2022-09-12T17:24:41.816Z,100255.97
2022-09-12T17:27:45.846Z,100253.28
2022-09-12T17:30:55.959Z,100251.38
2022-09-12T17:34:00.972Z,100255.16
2022-09-12T17:37:05.197Z,100251.22
2022-09-12T17:40:10.337Z,100249.78
2022-09-12T17:43:14.998Z,100254.22
2022-09-12T17:46:19.537Z,100252.41
2022-09-12T17:49:23.761Z,100253.38
2022-09-12T17:52:28.299Z,100244.63
2022-09-12T17:55:37.068Z,100249.41
2022-09-12T17:58:41.503Z,100245.81
2022-09-12T18:02:04.421Z,100256.47
2022-09-12T18:05:10.234Z,100248.69
2022-09-12T18:08:15.187Z,100243.44
2022-09-12T18:11:19.605Z,100244.25
2022-09-12T18:14:24.871Z,100244.25
2022-09-12T18:17:28.844Z,100239.00
2022-09-12T18:20:33.012Z,100243.56
2022-09-12T18:23:37.224Z,100246.78
2022-09-12T18:26:43.597Z,100250.81
2022-09-12T18:30:04.192Z,100245.91
2022-09-12T18:33:14.824Z,100252.84
2022-09-12T18:36:19.807Z,100250.94
2022-09-12T18:39:27.463Z,100253.97
2022-09-12T18:42:32.535Z,100258.94
2022-09-12T18:45:36.685Z,100252.09
2022-09-12T18:48:41.183Z,100244.81
2022-09-12T18:51:45.716Z,100240.66
2022-09-12T18:54:49.816Z,100250.69
2022-09-12T18:57:55.392Z,100251.50
2022-09-12T19:00:59.933Z,100251.94
2022-09-12T19:04:06.023Z,100251.66
2022-09-12T19:07:10.767Z,100248.88
2022-09-12T19:10:15.225Z,100251.84
2022-09-12T19:13:19.693Z,100229.94
2022-09-12T19:16:27.221Z,100239.84
2022-09-12T19:19:32.158Z,100239.28
2022-09-12T19:22:37.312Z,100229.03
2022-09-12T19:25:41.892Z,100230.06
2022-09-12T19:28:46.287Z,100233.25
2022-09-12T19:31:50.536Z,100230.47
2022-09-12T19:34:54.802Z,100233.09
2022-09-12T19:37:58.877Z,100219.34
2022-09-12T19:41:06.217Z,100230.16
2022-09-12T19:44:11.468Z,100232.72
2022-09-12T19:47:15.695Z,100224.91
2022-09-12T19:50:20.107Z,100232.00
2022-09-12T19:53:24.652Z,100227.50
2022-09-12T19:56:29.329Z,100226.91
2022-09-12T19:59:33.756Z,100220.44
2022-09-12T20:02:37.986Z,100220.44
2022-09-12T20:05:42.933Z,100214.16
2022-09-12T20:08:47.071Z,100209.25
2022-09-12T20:11:52.131Z,100205.53
2022-09-12T20:14:55.833Z,100203.59
2022-09-12T20:17:59.750Z,100212.28
2022-09-12T20:21:09.016Z,100213.50
2022-09-12T20:24:14.591Z,100211.53
2022-09-12T20:27:18.879Z,100215.28
2022-09-12T20:30:23.180Z,100213.28
2022-09-12T20:33:27.402Z,100208.38
2022-09-12T20:36:31.941Z,100215.69
2022-09-12T20:39:35.835Z,100211.56
2022-09-12T20:42:39.807Z,100208.03
2022-09-12T20:45:43.829Z,100209.25
2022-09-12T20:48:47.792Z,100205.69
2022-09-12T20:51:52.078Z,100198.81
2022-09-12T20:54:56.394Z,100197.81
2022-09-12T20:58:00.310Z,100202.44
2022-09-12T21:01:08.929Z,100201.06
2022-09-12T21:04:15.074Z,100186.31
2022-09-12T21:07:19.515Z,100176.44
2022-09-12T21:10:23.617Z,100175.44
2022-09-12T21:13:28.065Z,100166.81
2022-09-12T21:16:38.302Z,100176.25
2022-09-12T21:19:42.175Z,100166.81
2022-09-12T21:22:46.729Z,100164.28
2022-09-12T21:25:52.701Z,100162.13
2022-09-12T21:28:57.632Z,100164.88
2022-09-12T21:32:02.487Z,100151.69
2022-09-12T21:35:07.335Z,100154.88
2022-09-12T21:38:11.878Z,100150.75
2022-09-12T21:41:17.034Z,100146.41
2022-09-12T21:44:21.703Z,100140.13
2022-09-12T21:47:25.813Z,100134.22
2022-09-12T21:50:29.920Z,100130.94
2022-09-12T21:53:37.527Z,100131.31
2022-09-12T21:56:41.823Z,100130.75
2022-09-12T21:59:45.787Z,100128.75
2022-09-12T22:02:49.630Z,100117.56
2022-09-12T22:06:01.884Z,100116.19
2022-09-12T22:09:07.211Z,100117.75
2022-09-12T22:12:11.001Z,100114.63
2022-09-12T22:15:39.602Z,100107.94
2022-09-12T22:18:38.881Z,100105.56
2022-09-12T22:22:03.332Z,100105.75
2022-09-12T22:25:10.456Z,100104.38
2022-09-12T22:28:14.332Z,100092.59
2022-09-12T22:31:18.266Z,100098.50
2022-09-12T22:34:22.618Z,100097.13
2022-09-12T22:37:26.877Z,100099.88
2022-09-12T22:40:30.912Z,100092.81
2022-09-12T22:43:38.903Z,100094.03
2022-09-12T22:46:43.398Z,100090.66
2022-09-12T22:49:47.814Z,100087.34
2022-09-12T22:52:52.801Z,100080.06
2022-09-12T22:55:57.254Z,100079.69
2022-09-12T22:59:01.272Z,100063.56
2022-09-12T23:02:05.879Z,100067.84
2022-09-12T23:05:10.507Z,100053.72
2022-09-12T23:08:16.171Z,100066.13
2022-09-12T23:11:21.459Z,100060.00
2022-09-12T23:14:25.577Z,100062.94
2022-09-12T23:17:29.556Z,100060.81
2022-09-12T23:20:33.603Z,100067.09
2022-09-12T23:23:38.743Z,100062.41
2022-09-12T23:26:43.221Z,100063.97
2022-09-12T23:29:47.108Z,100063.53
2022-09-12T23:32:51.272Z,100064.34
2022-09-12T23:36:03.810Z,100052.34
2022-09-12T23:39:09.440Z,100052.97
2022-09-12T23:42:13.450Z,100047.66
2022-09-12T23:45:17.725Z,100043.91
2022-09-12T23:48:21.805Z,100039.41
2022-09-12T23:51:25.882Z,100033.47
2022-09-12T23:54:29.964Z,100032.69
2022-09-12T23:57:34.145Z,100020.69
